createdAt,value
2019-01-02T00:00:13.007Z,103208.28
2019-01-02T00:05:23.651Z,103210.92
2019-01-02T00:10:32.563Z,103203.33
2019-01-02T00:15:40.535Z,103220.75
2019-01-02T00:20:51.366Z,103234.55
2019-01-02T00:26:04.011Z,103236.92
2019-01-02T00:31:14.928Z,103248.02
2019-01-02T00:36:25.765Z,103243.89
2019-01-02T00:41:36.765Z,103256.41
2019-01-02T00:46:43.075Z,103259.78
2019-01-02T00:51:50.664Z,103255.13
2019-01-02T00:57:01.957Z,103253.48
2019-01-02T01:02:13.807Z,103259.88
2019-01-02T01:07:21.824Z,103256.32
2019-01-02T01:12:30.035Z,103254.27
2019-01-02T01:17:39.116Z,103261.88
2019-01-02T01:22:46.526Z,103251.83
2019-01-02T01:27:57.800Z,103270.64
2019-01-02T01:33:10.466Z,103266.08
2019-01-02T01:38:20.389Z,103274.27
2019-01-02T01:43:28.295Z,103281.73
2019-01-02T01:48:37.047Z,103288.94
2019-01-02T01:53:50.667Z,103289.55
2019-01-02T01:58:58.738Z,103289.16
2019-01-02T02:04:10.542Z,103276.76
2019-01-02T02:09:17.477Z,103280.95
2019-01-02T02:14:27.070Z,103288.58
2019-01-02T02:19:36.519Z,103296.86
2019-01-02T02:24:47.042Z,103303.05
2019-01-02T02:30:00.268Z,103314.34
2019-01-02T02:35:11.587Z,103304.23
2019-01-02T02:40:25.963Z,103304.59
2019-01-02T02:45:35.909Z,103315.47
2019-01-02T02:50:45.769Z,103319.89
2019-01-02T02:55:54.967Z,103304.40
2019-01-02T03:01:06.595Z,103302.50
2019-01-02T03:06:15.735Z,103308.22
2019-01-02T03:11:28.910Z,103308.27
2019-01-02T03:16:39.207Z,103311.09
2019-01-02T03:21:57.817Z,103319.91
2019-01-02T03:27:05.437Z,103321.77
2019-01-02T03:32:17.171Z,103317.04
2019-01-02T03:37:29.097Z,103322.67
2019-01-02T03:42:38.222Z,103331.05
2019-01-02T03:47:48.256Z,103329.33
2019-01-02T03:52:57.337Z,103346.06
2019-01-02T03:58:11.174Z,103340.02
2019-01-02T04:03:26.627Z,103326.91
2019-01-02T04:08:36.809Z,103321.28
2019-01-02T04:13:49.616Z,103321.28
2019-01-02T04:18:58.721Z,103341.49
2019-01-02T04:24:08.463Z,103334.38
2019-01-02T04:29:18.574Z,103341.80
2019-01-02T04:34:29.705Z,103346.83
2019-01-02T04:39:40.531Z,103345.39
2019-01-02T04:44:49.560Z,103347.61
2019-01-02T04:50:03.178Z,103350.47
2019-01-02T04:55:14.440Z,103344.60
2019-01-02T05:00:26.824Z,103328.28
2019-01-02T05:05:36.687Z,103347.59
2019-01-02T05:10:47.780Z,103351.67
2019-01-02T05:16:01.386Z,103355.48
2019-01-02T05:21:11.608Z,103358.57
2019-01-02T05:26:19.713Z,103358.81
2019-01-02T05:31:28.501Z,103356.55
2019-01-02T05:36:38.616Z,103355.06
2019-01-02T05:41:47.883Z,103346.39
2019-01-02T05:46:54.901Z,103366.25
2019-01-02T05:53:26.450Z,103376.13
2019-01-02T05:58:39.887Z,103388.36
2019-01-02T06:03:53.543Z,103394.22
2019-01-02T06:09:03.600Z,103403.97
2019-01-02T06:14:13.944Z,103412.99
2019-01-02T06:19:26.850Z,103419.63
2019-01-02T06:24:39.429Z,103401.67
2019-01-02T06:29:48.429Z,103410.09
2019-01-02T06:34:59.146Z,103417.95
2019-01-02T06:40:09.542Z,103423.55
2019-01-02T06:45:19.768Z,103433.23
2019-01-02T06:50:35.843Z,103437.75
2019-01-02T06:55:45.668Z,103445.27
2019-01-02T07:01:01.017Z,103451.73
2019-01-02T07:06:11.499Z,103459.92
2019-01-02T07:11:24.997Z,103466.71
2019-01-02T07:16:35.869Z,103479.14
2019-01-02T07:21:44.769Z,103469.70
2019-01-02T07:26:51.952Z,103472.30
2019-01-02T07:31:58.841Z,103470.09
2019-01-02T07:37:49.739Z,103489.12
2019-01-02T07:43:44.622Z,103513.88
2019-01-02T07:49:44.921Z,103511.22
2019-01-02T07:55:30.309Z,103502.72
2019-01-02T08:01:16.131Z,103520.48
2019-01-02T08:06:46.862Z,103526.77
2019-01-02T08:12:26.634Z,103540.22
2019-01-02T08:18:05.700Z,103534.84
2019-01-02T08:24:01.003Z,103547.20
2019-01-02T08:29:46.093Z,103555.91
2019-01-02T08:36:03.333Z,103558.80
2019-01-02T08:41:46.371Z,103561.88
2019-01-02T08:47:12.864Z,103558.13
2019-01-02T08:53:07.423Z,103562.64
2019-01-02T08:59:06.089Z,103570.80
2019-01-02T09:04:36.870Z,103575.31
2019-01-02T09:10:33.957Z,103589.80
2019-01-02T09:16:18.920Z,103588.82
2019-01-02T09:21:56.095Z,103597.55
2019-01-02T09:27:34.979Z,103594.31
2019-01-02T09:33:21.797Z,103610.91
2019-01-02T09:39:07.281Z,103615.63
2019-01-02T09:44:41.572Z,103620.79
2019-01-02T09:50:27.948Z,103629.52
2019-01-02T09:55:52.233Z,103632.20
2019-01-02T10:01:36.644Z,103631.70
2019-01-02T10:07:21.636Z,103633.83
2019-01-02T10:13:03.942Z,103632.61
2019-01-02T10:18:50.520Z,103626.30
2019-01-02T10:24:44.977Z,103623.61
2019-01-02T10:30:29.583Z,103627.98
2019-01-02T10:36:16.230Z,103627.61
2019-01-02T10:41:52.909Z,103609.41
2019-01-02T10:47:42.114Z,103619.05
2019-01-02T10:53:12.704Z,103621.69
2019-01-02T10:58:57.514Z,103622.45
2019-01-02T11:04:54.369Z,103630.77
2019-01-02T11:10:38.502Z,103628.05
2019-01-02T11:16:11.268Z,103616.98
2019-01-02T11:21:49.189Z,103620.59
2019-01-02T11:27:38.344Z,103617.70
2019-01-02T11:33:39.557Z,103618.42
2019-01-02T11:39:18.785Z,103611.22
2019-01-02T11:45:10.883Z,103605.20
2019-01-02T11:50:18.333Z,103608.73
2019-01-02T11:55:29.156Z,103611.77
2019-01-02T12:00:38.152Z,103616.34
2019-01-02T12:05:48.044Z,103618.17
2019-01-02T12:10:53.832Z,103620.31
2019-01-02T12:16:09.065Z,103622.58
2019-01-02T12:21:20.711Z,103629.58
2019-01-02T12:26:30.782Z,103623.56
2019-01-02T12:31:44.291Z,103625.41
2019-01-02T12:36:54.286Z,103618.18
2019-01-02T12:42:01.576Z,103621.48
2019-01-02T12:47:12.293Z,103612.14
2019-01-02T12:52:22.191Z,103610.67
2019-01-02T12:57:31.347Z,103612.84
2019-01-02T13:03:11.721Z,103601.85
2019-01-02T13:09:05.511Z,103605.21
2019-01-02T13:14:37.927Z,103614.03
2019-01-02T13:20:15.718Z,103621.46
2019-01-02T13:25:58.821Z,103627.27
2019-01-02T13:31:37.283Z,103633.80
2019-01-02T13:36:58.866Z,103633.77
2019-01-02T13:42:47.834Z,103634.98
2019-01-02T13:48:21.527Z,103652.87
2019-01-02T13:53:33.347Z,103651.36
2019-01-02T13:58:48.361Z,103652.57
2019-01-02T14:04:02.429Z,103654.95
2019-01-02T14:09:14.125Z,103663.84
2019-01-02T14:14:25.970Z,103663.91
2019-01-02T14:19:35.819Z,103665.70
2019-01-02T14:24:48.516Z,103670.23
2019-01-02T14:29:58.519Z,103670.44
2019-01-02T14:35:08.761Z,103677.55
2019-01-02T14:40:23.124Z,103673.62
2019-01-02T14:45:35.718Z,103670.53
2019-01-02T14:50:49.349Z,103684.88
2019-01-02T14:55:59.207Z,103681.45
2019-01-02T15:01:11.877Z,103692.53
2019-01-02T15:06:21.805Z,103707.83
2019-01-02T15:11:34.443Z,103706.64
2019-01-02T15:16:46.148Z,103707.25
2019-01-02T15:21:54.250Z,103716.15
2019-01-02T15:27:04.308Z,103723.29
2019-01-02T15:32:18.787Z,103723.04
2019-01-02T15:37:31.845Z,103728.40
2019-01-02T15:42:39.260Z,103733.25
2019-01-02T15:47:47.748Z,103730.73
2019-01-02T15:52:57.663Z,103736.61
2019-01-02T15:58:09.443Z,103742.13
2019-01-02T16:03:22.207Z,103746.06
2019-01-02T16:08:36.108Z,103747.46
2019-01-02T16:13:47.846Z,103747.46
2019-01-02T16:19:01.291Z,103762.86
2019-01-02T16:24:08.714Z,103761.75
2019-01-02T16:29:15.113Z,103768.94
2019-01-02T16:34:24.172Z,103775.64
2019-01-02T16:39:37.564Z,103775.94
2019-01-02T16:44:49.421Z,103779.11
2019-01-02T16:50:02.381Z,103782.79
2019-01-02T16:55:19.623Z,103770.05
2019-01-02T17:00:31.176Z,103772.86
2019-01-02T17:05:44.689Z,103787.53
2019-01-02T17:10:55.559Z,103792.36
2019-01-02T17:16:08.144Z,103791.59
2019-01-02T17:21:18.355Z,103789.17
2019-01-02T17:26:31.143Z,103797.44
2019-01-02T17:31:44.211Z,103795.06
2019-01-02T17:36:55.015Z,103786.48
2019-01-02T17:42:07.719Z,103794.98
2019-01-02T17:47:17.742Z,103794.52
2019-01-02T17:52:30.328Z,103791.18
2019-01-02T17:57:42.051Z,103800.68
2019-01-02T18:02:53.749Z,103816.15
2019-01-02T18:08:01.995Z,103808.95
2019-01-02T18:13:13.411Z,103808.63
2019-01-02T18:18:25.923Z,103808.63
2019-01-02T18:23:36.710Z,103810.64
2019-01-02T18:28:46.051Z,103810.41
2019-01-02T18:34:17.030Z,103819.38
2019-01-02T18:39:34.425Z,103821.78
2019-01-02T18:44:48.434Z,103832.53
2019-01-02T18:49:57.312Z,103835.71
2019-01-02T18:55:07.332Z,103835.21
2019-01-02T19:00:35.508Z,103841.22
2019-01-02T19:05:46.311Z,103844.64
2019-01-02T19:11:02.114Z,103853.19
2019-01-02T19:16:11.629Z,103858.08
2019-01-02T19:21:19.869Z,103866.14
2019-01-02T19:26:33.283Z,103857.16
2019-01-02T19:31:41.079Z,103864.57
2019-01-02T19:36:52.386Z,103855.94
2019-01-02T19:42:01.454Z,103847.85
2019-01-02T19:47:12.166Z,103844.48
2019-01-02T19:52:23.285Z,103845.31
2019-01-02T19:57:37.931Z,103848.84
2019-01-02T20:02:46.882Z,103846.62
2019-01-02T20:07:58.097Z,103853.72
2019-01-02T20:13:12.004Z,103854.22
2019-01-02T20:18:23.718Z,103852.44
2019-01-02T20:23:34.626Z,103849.77
2019-01-02T20:28:44.511Z,103857.41
2019-01-02T20:33:54.612Z,103859.78
2019-01-02T20:39:07.106Z,103852.79
2019-01-02T20:44:17.028Z,103856.42
2019-01-02T20:49:30.501Z,103853.72
2019-01-02T20:54:42.950Z,103844.86
2019-01-02T20:59:56.702Z,103842.66
2019-01-02T21:05:07.014Z,103842.00
2019-01-02T21:10:19.634Z,103828.48
2019-01-02T21:15:30.526Z,103824.25
2019-01-02T21:20:41.415Z,103817.91
2019-01-02T21:25:55.773Z,103811.12
2019-01-02T21:31:04.871Z,103822.11
2019-01-02T21:36:15.682Z,103818.58
2019-01-02T21:41:28.354Z,103820.95
2019-01-02T21:46:38.418Z,103815.84
2019-01-02T21:51:47.183Z,103807.05
2019-01-02T21:56:56.988Z,103804.88
2019-01-02T22:02:11.533Z,103818.34
2019-01-02T22:07:24.325Z,103814.11
2019-01-02T22:12:34.210Z,103814.98
2019-01-02T22:17:43.146Z,103816.77
2019-01-02T22:22:52.043Z,103823.94
2019-01-02T22:28:05.415Z,103823.32
2019-01-02T22:33:14.948Z,103826.80
2019-01-02T22:38:21.613Z,103830.83
2019-01-02T22:43:35.651Z,103829.08
2019-01-02T22:48:50.732Z,103830.45
2019-01-02T22:54:03.362Z,103834.83
2019-01-02T22:59:13.964Z,103833.97
2019-01-02T23:04:48.226Z,103826.69
2019-01-02T23:10:13.443Z,103824.34
2019-01-02T23:15:43.324Z,103827.75
2019-01-02T23:21:10.665Z,103826.14
2019-01-02T23:26:35.406Z,103820.60
2019-01-02T23:32:02.413Z,103821.64
2019-01-02T23:37:32.646Z,103822.62
2019-01-02T23:43:02.047Z,103825.23
2019-01-02T23:48:27.207Z,103822.56
2019-01-02T23:53:55.219Z,103825.72
2019-01-02T23:59:30.976Z,103831.58
